Latest Weather Observations for Camden

IDN60801

Issued at 4:03 pm EST Monday 25 September 2017 (issued every 30 minutes, with the page automatically refreshed every 10 minutes)

About weather observations | Map of weather stations | Latest weather observations for NSW | Other Formats
Station Details ID: 068192 Name: CAMDEN AIRPORT AWS Lat: -34.04 Lon: 150.69 Height: 73.9 m
Data from the previous 72 hours. | See also: Recent months at Camden
Date/Time
EST
Temp
°C
App
Temp
°C
Dew
Point
°C
Rel
Hum
%
Delta-T
°C
Wind Press
QNH
hPa
Press
MSL
hPa
Rain since
9am
mm
Dir  Spd
km/h
Gust
km/h
Spd
kts
Gust
kts
25/04:00pm 23.1 15.0 -0.4 21 10.6 WSW 32 44 17 24 1006.9 1006.8 0.2
25/03:56pm 23.2 14.9 -0.3 21 10.7 WSW 33 52 18 28 1006.8 1006.7 0.2
25/03:30pm 23.7 15.4 -0.6 20 11.0 WSW 33 46 18 25 1006.2 1006.1 0.2
25/03:00pm 24.7 16.7 0.3 20 11.3 W 32 46 17 25 1005.9 1005.8 0.2
25/02:30pm 24.5 15.8 -0.6 19 11.4 W 35 54 19 29 1005.4 1005.3 0.2
25/02:00pm 25.4 16.7 -0.6 18 11.9 W 35 59 19 32 1005.0 1004.9 0.2
25/01:50pm 25.3 16.2 -0.7 18 11.9 WSW 37 59 20 32 1004.9 1004.8 0.2
25/01:30pm 25.7 17.5 0.4 19 11.8 W 33 44 18 24 1005.1 1005.0 0.2
25/01:00pm 24.6 15.9 -0.5 19 11.5 W 35 46 19 25 1005.3 1005.2 0.2
25/12:30pm 25.3 15.9 0.0 19 11.7 W 39 57 21 31 1005.5 1005.4 0.2
25/12:02pm 24.7 14.2 -1.2 18 11.7 W 44 63 24 34 1005.7 1005.6 0.2
25/12:00pm 24.4 14.1 -0.7 19 11.4 W 43 59 23 32 1005.6 1005.5 0.2
25/11:33am 24.4 16.0 -0.7 19 11.4 W 33 52 18 28 1006.2 1006.1 0.2
25/11:30am 24.6 16.5 -0.5 19 11.4 W 32 46 17 25 1006.1 1006.0 0.2
25/11:00am 23.7 14.9 -1.3 19 11.2 W 35 54 19 29 1006.7 1006.6 0.2
25/10:30am 22.8 14.4 -1.3 20 10.7 WNW 33 52 18 28 1006.8 1006.7 0.2
25/10:00am 22.9 14.2 -0.6 21 10.6 W 35 63 19 34 1007.8 1007.7 0.2
25/09:39am 22.6 13.5 -0.8 21 10.4 W 37 56 20 30 1007.7 1007.6 0.2
25/09:30am 22.2 12.7 -1.1 21 10.3 W 39 52 21 28 1007.8 1007.7 0.0
25/09:14am 22.3 14.5 -1.1 21 10.3 W 30 50 16 27 1008.1 1008.0 0.0
25/09:00am 21.6 16.1 0.8 25 9.5 NNW 19 30 10 16 1008.1 1008.0 0.0
25/08:30am 20.4 16.4 0.8 27 8.9 NNW 11 17 6 9 1007.9 1007.8 0.0
25/08:00am 19.6 14.1 0.6 28 8.5 WSW 19 30 10 16 1007.8 1007.7 0.0
25/07:30am 18.6 15.0 0.7 30 8.0 W 9 15 5 8 1007.5 1007.4 0.0
25/07:00am 16.1 14.8 3.9 44 5.7 CALM 0 0 0 0 1007.1 1007.0 0.0
25/06:30am 15.2 12.7 1.4 39 6.0 SW 4 13 2 7 1006.8 1006.7 0.0
25/06:00am 11.3 8.1 0.7 48 4.4 NE 7 11 4 6 1006.6 1006.5 0.0
25/05:30am 10.5 8.7 1.3 53 3.8 CALM 0 0 0 0 1006.1 1006.0 0.0
25/05:00am 12.9 9.0 1.3 45 5.0 SE 11 15 6 8 1005.7 1005.6 0.0
25/04:30am 11.7 9.6 1.9 51 4.2 SE 2 7 1 4 1005.5 1005.4 0.0
25/04:00am 10.2 6.6 0.8 52 3.9 S 9 15 5 8 1005.4 1005.3 0.0
25/03:30am 14.9 13.0 0.7 38 6.1 CALM 0 0 0 0 1005.0 1004.9 0.0
25/03:00am 11.8 10.0 1.4 49 4.4 CALM 0 0 0 0 1004.6 1004.5 0.0
25/02:30am 13.4 10.4 1.1 43 5.3 E 6 9 3 5 1004.4 1004.3 0.0
25/02:00am 17.4 14.3 0.1 31 7.5 NNE 6 9 3 5 1004.3 1004.2 0.0
25/01:30am 19.7 15.6 -0.3 26 8.8 WNW 11 15 6 8 1004.1 1004.0 0.0
25/01:00am 20.0 15.2 -0.1 26 8.9 W 15 26 8 14 1004.0 1003.9 0.0
25/12:30am 16.4 12.5 0.9 35 6.8 NW 11 15 6 8 1004.1 1004.0 0.0
25/12:00am 17.0 13.1 1.0 34 7.1 NW 11 15 6 8 1004.3 1004.2 0.0
 
Date/Time
EST
Temp
°C
App
Temp
°C
Dew
Point
°C
Rel
Hum
%
Delta-T
°C
Wind Press
QNH
hPa
Press
MSL
hPa
Rain since
9am
mm
Dir  Spd
km/h
Gust
km/h
Spd
kts
Gust
kts
24/11:30pm 17.4 13.8 0.6 32 7.4 N 9 11 5 6 1004.3 1004.2 0.0
24/11:00pm 17.0 13.1 1.0 34 7.1 NNW 11 13 6 7 1004.1 1004.0 0.0
24/10:30pm 16.9 13.0 1.4 35 6.9 N 11 13 6 7 1004.2 1004.1 0.0
24/10:00pm 15.1 11.5 3.0 44 5.5 NNW 11 15 6 8 1004.4 1004.3 0.0
24/09:30pm 14.7 10.6 2.3 43 5.5 N 13 17 7 9 1004.6 1004.5 0.0
24/09:00pm 16.7 12.7 0.4 33 7.1 NNW 11 13 6 7 1004.5 1004.4 0.0
24/08:30pm 16.8 13.2 0.5 33 7.1 WNW 9 11 5 6 1004.6 1004.5 0.0
24/08:00pm 18.2 14.5 -0.1 29 8.0 WNW 9 11 5 6 1004.6 1004.5 0.0
24/07:30pm 19.8 16.0 -0.8 25 9.0 WNW 9 9 5 5 1004.4 1004.3 0.0
24/07:00pm 20.8 16.6 -1.1 23 9.6 NW 11 13 6 7 1004.2 1004.1 0.0
24/06:30pm 22.2 17.2 -1.1 21 10.3 WNW 15 20 8 11 1003.7 1003.6 0.0
24/06:00pm 22.7 17.2 -2.1 19 10.8 WNW 17 26 9 14 1003.3 1003.2 0.0
24/05:30pm 24.4 18.3 -2.2 17 11.7 WNW 20 39 11 21 1003.1 1003.0 0.0
24/05:00pm 24.9 16.6 -1.8 17 12.0 WNW 32 44 17 24 1002.8 1002.7 0.0
24/04:39pm 25.2 17.4 -0.8 18 11.8 WNW 30 48 16 26 1002.7 1002.6 0.0
24/04:30pm 25.3 17.0 -1.5 17 12.1 WNW 32 44 17 24 1002.5 1002.4 0.0
24/04:00pm 25.3 17.9 -0.7 18 11.9 WNW 28 35 15 19 1002.6 1002.5 0.0
24/03:30pm 26.0 17.6 -0.9 17 12.3 WNW 33 48 18 26 1002.5 1002.4 0.0
24/03:26pm 25.4 17.5 -1.4 17 12.1 WNW 30 48 16 26 1002.3 1002.2 0.0
24/03:00pm 26.1 18.4 0.0 18 12.2 WNW 30 44 16 24 1002.4 1002.3 0.0
24/02:41pm 25.3 17.0 -1.5 17 12.1 WNW 32 50 17 27 1002.5 1002.4 0.0
24/02:30pm 25.4 16.6 -1.4 17 12.1 NW 35 48 19 26 1002.4 1002.3 0.0
24/02:12pm 25.9 17.7 -1.0 17 12.3 WNW 32 50 17 27 1002.7 1002.6 0.0
24/02:00pm 26.4 18.5 -1.4 16 12.7 WNW 30 46 16 25 1002.7 1002.6 0.0
24/01:57pm 26.7 19.2 -1.2 16 12.8 WNW 28 46 15 25 1002.4 1002.3 0.0
24/01:30pm 26.3 18.4 -1.5 16 12.6 WNW 30 43 16 23 1002.4 1002.3 0.0
24/01:00pm 28.3 19.9 -0.8 15 13.6 WNW 33 52 18 28 1002.0 1001.9 0.0
24/12:54pm 27.9 20.6 -0.2 16 13.2 WNW 28 52 15 28 1002.3 1002.2 0.0
24/12:30pm 28.1 21.4 -0.9 15 13.5 W 24 35 13 19 1003.2 1003.1 0.0
24/12:00pm 28.6 22.2 -1.5 14 14.0 WNW 22 39 12 21 1002.2 1002.1 0.0
24/11:30am 28.5 21.1 -0.6 15 13.6 WNW 28 41 15 22 1003.1 1003.0 0.0
24/11:00am 27.8 19.7 -0.3 16 13.2 WNW 32 50 17 27 1003.5 1003.4 0.0
24/10:59am 28.0 19.9 -0.1 16 13.2 WNW 32 50 17 27 1003.5 1003.4 0.0
24/10:30am 26.7 21.1 -0.3 17 12.6 WNW 19 35 10 19 1004.1 1004.0 0.0
24/10:00am 26.6 20.8 -1.3 16 12.8 W 19 37 10 20 1004.4 1004.3 0.0
24/09:30am 25.9 17.7 -1.0 17 12.3 W 32 54 17 29 1003.3 1003.2 0.0
24/09:20am 25.9 18.1 -1.0 17 12.3 W 30 52 16 28 1004.0 1003.9 0.0
24/09:00am 25.5 17.6 -1.3 17 12.2 W 30 41 16 22 1003.9 1003.8 0.0
24/08:30am 25.2 19.0 0.0 19 11.6 W 22 35 12 19 1003.4 1003.3 0.0
24/08:00am 24.7 19.9 0.3 20 11.4 W 15 26 8 14 1002.8 1002.7 0.0
24/07:30am 23.7 16.4 0.1 21 10.8 WSW 28 43 15 23 1002.5 1002.4 0.0
24/07:00am 23.3 15.1 0.4 22 10.6 WSW 33 56 18 30 1002.1 1002.0 0.0
24/06:30am 23.6 14.2 2.4 25 10.1 WSW 41 61 22 33 1001.5 1001.4 0.0
24/06:29am 23.6 14.2 2.4 25 10.1 WSW 41 61 22 33 1001.5 1001.4 0.0
24/06:00am 24.3 16.4 4.1 27 10.1 WSW 35 48 19 26 1001.2 1001.2 0.0
24/05:38am 25.5 18.0 3.5 24 10.9 W 32 50 17 27 1000.9 1000.9 0.0
24/05:30am 26.6 18.2 1.8 20 12.0 WSW 35 52 19 28 1000.3 1000.3 0.0
24/05:01am 29.5 22.2 0.2 15 14.0 NW 28 46 15 25 999.1 999.1 0.0
24/05:00am 29.3 21.8 0.9 16 13.8 NW 30 46 16 25 999.1 999.1 0.0
24/04:43am 30.8 20.1 0.2 14 14.8 NW 46 76 25 41 998.6 998.6 0.0
24/04:41am 30.5 19.0 0.0 14 14.7 NW 50 76 27 41 998.8 998.8 0.0
24/04:33am 31.0 20.7 0.4 14 14.9 NW 44 76 24 41 998.5 998.5 0.0
24/04:30am 30.5 21.6 1.0 15 14.4 NW 37 76 20 41 998.3 998.3 0.0
24/04:29am 29.8 21.8 0.4 15 14.2 NW 32 74 17 40 998.6 998.6 0.0
24/04:28am 29.2 21.9 -0.1 15 13.9 NW 28 50 15 27 998.9 998.9 0.0
24/04:00am 28.7 23.0 -0.5 15 13.8 NW 19 26 10 14 998.2 998.2 0.0
24/03:30am 29.6 23.7 -0.7 14 14.3 NW 20 28 11 15 997.9 997.9 0.0
24/03:00am 29.5 23.7 0.2 15 14.1 NW 20 26 11 14 998.5 998.5 0.0
24/02:30am 29.9 23.7 -0.5 14 14.4 NW 22 35 12 19 998.1 998.1 0.0
24/02:00am 30.8 24.5 -0.8 13 15.1 WNW 22 35 12 19 998.2 998.2 0.0
24/01:51am 29.5 24.3 0.2 15 14.0 WNW 17 24 9 13 998.3 998.3 0.0
24/01:30am 24.5 20.8 2.6 24 10.6 NNW 11 19 6 10 998.4 998.4 0.0
24/01:00am 25.0 21.6 1.8 22 11.1 N 9 11 5 6 998.2 998.2 0.0
24/12:30am 27.0 22.8 1.4 19 12.3 NNE 13 20 7 11 998.7 998.7 0.0
24/12:00am 22.9 18.2 2.9 27 9.7 NNW 17 22 9 12 1000.0 1000.0 0.0
 
Date/Time
EST
Temp
°C
App
Temp
°C
Dew
Point
°C
Rel
Hum
%
Delta-T
°C
Wind Press
QNH
hPa
Press
MSL
hPa
Rain since
9am
mm
Dir  Spd
km/h
Gust
km/h
Spd
kts
Gust
kts
23/11:30pm 25.1 21.6 1.3 21 11.3 N 9 15 5 8 999.1 999.1 0.0
23/11:07pm 27.3 21.9 2.4 20 12.2 NNE 20 33 11 18 999.8 999.8 0.0
23/11:00pm 21.8 18.1 4.4 32 8.6 N 13 20 7 11 1000.3 1000.3 0.0
23/10:30pm 21.9 18.7 3.1 29 9.0 NNW 9 11 5 6 1000.9 1000.9 0.0
23/10:00pm 22.6 18.5 2.1 26 9.7 NNE 13 15 7 8 1000.9 1000.9 0.0
23/09:30pm 21.0 16.9 2.3 29 8.7 N 13 15 7 8 1001.2 1001.2 0.0
23/09:00pm 22.6 18.6 2.7 27 9.5 N 13 15 7 8 1000.7 1000.7 0.0
23/08:30pm 23.8 20.2 0.8 22 10.7 N 9 11 5 6 1000.9 1000.9 0.0
23/08:00pm 26.0 22.4 0.6 19 12.0 N 9 13 5 7 1000.7 1000.7 0.0
23/07:30pm 26.6 22.1 -0.4 17 12.5 N 13 17 7 9 1000.3 1000.3 0.0
23/07:00pm 28.0 23.0 -1.0 15 13.5 N 15 19 8 10 1000.3 1000.3 0.0
23/06:30pm 29.5 23.3 -2.9 12 14.7 N 20 24 11 13 1000.4 1000.4 0.0
23/06:00pm 31.6 24.2 -3.7 10 16.1 NNW 26 35 14 19 1000.5 1000.5 0.0
23/05:30pm 32.0 25.4 -3.4 10 16.2 NNW 22 33 12 18 1000.4 1000.4 0.0
23/05:00pm 33.5 27.6 -2.3 10 17.0 N 19 24 10 13 1000.1 1000.1 0.0
23/04:30pm 35.0 28.5 -2.6 9 17.9 NNW 22 33 12 18 1000.0 1000.0 0.0
23/04:00pm 35.6 27.1 -3.7 8 18.5 NNW 32 44 17 24 1000.0 1000.0 0.0
23/03:30pm 36.1 27.6 -1.7 9 18.3 NNW 33 44 18 24 1000.1 1000.1 0.0
23/03:00pm 35.9 28.3 -1.9 9 18.4 NNW 28 39 15 21 1000.4 1000.4 0.0
23/02:47pm 35.9 28.3 -1.9 9 18.3 NNW 28 46 15 25 1000.4 1000.4 0.0
23/02:30pm 35.3 30.1 2.7 13 16.9 N 19 26 10 14 1000.7 1000.7 0.0
23/02:00pm 33.0 29.5 5.5 18 14.8 N 13 17 7 9 1001.3 1001.3 0.0
23/01:30pm 32.3 29.1 5.0 18 14.4 NNW 11 19 6 10 1002.3 1002.2 0.0
23/01:00pm 30.2 27.7 4.8 20 13.3 N 7 19 4 10 1003.1 1003.0 0.0
23/12:30pm 28.9 24.6 3.0 19 13.0 NE 15 20 8 11 1004.1 1004.0 0.0
23/12:00pm 27.8 24.8 4.2 22 12.0 NE 9 15 5 8 1005.1 1005.0 0.0
23/11:30am 26.0 23.2 3.3 23 11.2 NNE 7 11 4 6 1005.9 1005.8 0.0
23/11:00am 25.8 23.3 3.7 24 11.0 N 6 11 3 6 1006.7 1006.6 0.0
23/10:30am 23.6 21.5 6.0 32 9.0 N 6 11 3 6 1007.3 1007.2 0.0
23/10:00am 21.2 19.1 5.9 37 7.7 N 6 9 3 5 1008.0 1007.9 0.0
23/09:30am 18.2 16.9 6.1 45 6.0 NW 2 9 1 5 1008.7 1008.7 0.0
23/09:00am 15.3 14.4 6.1 54 4.5 CALM 0 0 0 0 1009.2 1009.2 0.0
23/08:30am 13.7 12.4 6.1 60 3.6 ESE 2 7 1 4 1009.5 1009.5 0.0
23/08:00am 10.4 9.4 5.8 73 2.1 CALM 0 0 0 0 1009.8 1009.8 0.0
23/07:30am 9.4 8.4 5.6 77 1.7 CALM 0 0 0 0 1009.8 1009.8 0.0
23/07:00am 8.7 7.7 5.4 80 1.5 CALM 0 0 0 0 1009.8 1009.8 0.0
23/06:30am 7.8 6.0 5.4 85 1.1 SSE 4 7 2 4 1009.6 1009.6 0.0
23/06:00am 6.6 5.0 4.6 87 0.9 SSE 2 7 1 4 1009.7 1009.7 0.0
23/05:30am 6.7 5.7 5.7 93 0.4 CALM 0 0 0 0 1009.6 1009.6 0.0
23/05:00am 6.6 5.5 4.9 89 0.7 CALM 0 0 0 0 1009.8 1009.8 0.0
23/04:30am 7.9 7.1 6.4 90 0.7 CALM 0 0 0 0 1009.7 1009.7 0.0
23/04:00am 7.6 6.6 5.4 86 1.0 CALM 0 0 0 0 1009.8 1009.8 0.0
23/03:30am 8.3 7.3 5.4 82 1.3 CALM 0 6 0 3 1009.8 1009.8 0.0
23/03:00am 8.0 6.9 4.9 81 1.4 CALM 0 6 0 3 1009.9 1009.9 0.0
23/02:30am 8.7 7.6 4.9 77 1.7 CALM 0 6 0 3 1010.1 1010.1 0.0
23/02:00am 9.5 8.6 5.9 78 1.7 CALM 0 6 0 3 1010.3 1010.3 0.0
23/01:30am 10.1 9.3 6.3 77 1.8 CALM 0 0 0 0 1010.6 1010.6 0.0
23/01:00am 10.6 9.0 4.7 67 2.7 S 2 6 1 3 1011.0 1011.0 0.0
23/12:30am 10.8 8.5 4.9 67 2.7 SSE 6 7 3 4 1011.1 1011.1 0.0
23/12:00am 10.4 8.1 5.6 72 2.2 SSW 7 9 4 5 1011.2 1011.2 0.0
 
Date/Time
EST
Temp
°C
App
Temp
°C
Dew
Point
°C
Rel
Hum
%
Delta-T
°C
Wind Press
QNH
hPa
Press
MSL
hPa
Rain since
9am
mm
Dir  Spd
km/h
Gust
km/h
Spd
kts
Gust
kts
22/11:30pm 12.6 11.6 5.5 62 3.3 CALM 0 0 0 0 1011.2 1011.2 0.0
22/11:00pm 11.7 9.3 5.1 64 3.0 NNE 7 9 4 5 1011.0 1011.0 0.0
22/10:30pm 12.7 11.9 6.3 65 3.0 CALM 0 0 0 0 1011.1 1011.1 0.0
22/10:00pm 12.9 10.3 6.3 64 3.2 WSW 9 11 5 6 1011.2 1011.2 0.0
22/09:30pm 15.0 13.5 5.0 51 4.7 SW 2 7 1 4 1011.6 1011.6 0.0
22/09:00pm 14.9 13.3 4.3 49 4.9 SSW 2 7 1 4 1011.7 1011.7 0.0
22/08:30pm 16.1 14.1 4.5 46 5.5 S 4 7 2 4 1011.7 1011.7 0.0
22/08:00pm 17.7 15.2 3.6 39 6.6 S 6 9 3 5 1011.4 1011.4 0.0
22/07:30pm 20.1 18.1 2.5 31 8.2 WSW 2 7 1 4 1011.2 1011.2 0.0
22/07:00pm 19.9 17.1 1.8 30 8.3 SW 6 9 3 5 1010.9 1010.9 0.0
22/06:30pm 24.0 19.7 1.0 22 10.7 ENE 13 19 7 10 1010.3 1010.3 0.0
22/06:00pm 25.1 20.7 0.6 20 11.5 ENE 13 17 7 9 1010.1 1010.1 0.0
22/05:30pm 26.8 23.4 -0.3 17 12.6 ENE 7 19 4 10 1009.7 1009.7 0.0
22/05:00pm 28.8 26.8 -0.4 15 13.8 CALM 0 6 0 3 1009.4 1009.4 0.0
22/04:30pm 29.4 25.4 -1.9 13 14.4 NE 9 15 5 8 1009.3 1009.3 0.0

Other Formats:

Comma delimited format used in spreadsheet applications
http://www.bom.gov.au/fwo/IDN60801/IDN60801.94755.axf

JavaScript Object Notation format (JSON) in row-major order
http://www.bom.gov.au/fwo/IDN60801/IDN60801.94755.json